createdAt,value
2019-05-26T00:02:18.072Z,51.30
2019-05-26T00:07:30.241Z,51.30
2019-05-26T00:12:26.637Z,51.40
2019-05-26T00:17:30.181Z,51.30
2019-05-26T00:22:33.608Z,51.40
2019-05-26T00:27:37.215Z,51.40
2019-05-26T00:32:40.640Z,51.40
2019-05-26T00:37:49.973Z,51.40
2019-05-26T00:42:49.251Z,51.30
2019-05-26T00:47:52.676Z,52.00
2019-05-26T00:52:56.895Z,51.40
2019-05-26T00:58:00.616Z,51.40
2019-05-26T01:03:04.039Z,51.30
2019-05-26T01:08:08.182Z,51.30
2019-05-26T01:13:11.677Z,51.30
2019-05-26T01:18:15.210Z,51.20
2019-05-26T01:23:18.676Z,51.50
2019-05-26T01:28:22.139Z,51.30
2019-05-26T01:33:25.620Z,51.20
2019-05-26T01:38:29.169Z,51.20
2019-05-26T01:43:32.564Z,51.20
2019-05-26T01:48:37.845Z,51.20
2019-05-26T01:53:41.310Z,51.10
2019-05-26T01:58:44.730Z,51.10
2019-05-26T02:03:48.241Z,51.20
2019-05-26T02:08:51.686Z,51.20
2019-05-26T02:13:56.200Z,51.20
2019-05-26T02:18:59.606Z,51.10
2019-05-26T02:24:03.031Z,51.20
2019-05-26T02:29:06.530Z,51.20
2019-05-26T02:34:10.045Z,51.10
2019-05-26T02:39:13.515Z,51.20
2019-05-26T02:44:16.972Z,51.20
2019-05-26T02:49:20.429Z,51.20
2019-05-26T02:54:24.011Z,51.30
2019-05-26T02:59:27.512Z,51.20
2019-05-26T03:04:30.965Z,51.30
2019-05-26T03:09:34.850Z,51.20
2019-05-26T03:14:38.272Z,51.20
2019-05-26T03:19:41.783Z,51.20
2019-05-26T03:24:45.249Z,51.10
2019-05-26T03:29:48.680Z,51.10
2019-05-26T03:34:52.122Z,51.20
2019-05-26T03:39:55.621Z,51.10
2019-05-26T03:44:59.046Z,51.20
2019-05-26T03:50:02.552Z,51.20
2019-05-26T03:55:06.918Z,51.10
2019-05-26T04:00:10.340Z,51.10
2019-05-26T04:05:13.836Z,51.10
2019-05-26T04:10:17.316Z,51.10
2019-05-26T04:15:20.845Z,51.10
2019-05-26T04:20:24.349Z,51.10
2019-05-26T04:25:27.778Z,51.10
2019-05-26T04:30:31.306Z,51.00
2019-05-26T04:35:34.918Z,51.00
2019-05-26T04:40:38.400Z,51.10
2019-05-26T04:45:41.951Z,51.10
2019-05-26T04:50:45.477Z,51.50
2019-05-26T04:55:49.081Z,51.10
2019-05-26T05:00:52.561Z,51.10
2019-05-26T05:05:56.010Z,51.40
2019-05-26T05:10:59.491Z,51.70
2019-05-26T05:16:03.033Z,51.90
2019-05-26T05:21:06.515Z,52.10
2019-05-26T05:26:10.030Z,52.10
2019-05-26T05:31:13.483Z,52.40
2019-05-26T05:36:16.965Z,52.50
2019-05-26T05:41:20.500Z,52.60
2019-05-26T05:46:23.908Z,52.70
2019-05-26T05:51:27.399Z,52.60
2019-05-26T05:56:30.908Z,52.60
2019-05-26T06:01:34.369Z,52.60
2019-05-26T06:06:37.837Z,52.60
2019-05-26T06:11:41.257Z,52.50
2019-05-26T06:16:44.791Z,52.50
2019-05-26T06:21:48.281Z,52.60
2019-05-26T06:26:51.787Z,52.50
2019-05-26T06:31:55.782Z,51.80
2019-05-26T06:36:59.631Z,52.00
2019-05-26T06:42:03.154Z,51.90
2019-05-26T06:47:06.666Z,52.50
2019-05-26T06:52:10.177Z,50.90
2019-05-26T06:57:13.728Z,51.20
2019-05-26T07:02:17.543Z,51.30
2019-05-26T07:07:21.838Z,51.30
2019-05-26T07:12:25.317Z,50.40
2019-05-26T07:17:28.882Z,50.50
2019-05-26T07:22:32.385Z,50.60
2019-05-26T07:27:35.929Z,50.50
2019-05-26T07:32:39.364Z,51.10
2019-05-26T07:37:42.958Z,50.40
2019-05-26T07:42:46.445Z,50.60
2019-05-26T07:47:49.911Z,50.40
2019-05-26T07:52:53.377Z,50.80
2019-05-26T07:57:56.990Z,50.00
2019-05-26T08:03:00.499Z,50.00
2019-05-26T08:08:12.873Z,49.90
2019-05-26T08:13:09.095Z,49.90
2019-05-26T08:18:12.555Z,49.80
2019-05-26T08:23:16.232Z,49.80
2019-05-26T08:28:19.672Z,49.60
2019-05-26T08:33:23.234Z,49.50
2019-05-26T08:38:26.750Z,49.40
2019-05-26T08:43:30.171Z,49.30
2019-05-26T08:48:35.408Z,49.40
2019-05-26T08:53:38.822Z,48.60
2019-05-26T08:58:42.279Z,48.00
2019-05-26T09:03:45.846Z,48.20
2019-05-26T09:08:49.350Z,49.10
2019-05-26T09:13:52.838Z,49.00
2019-05-26T09:18:56.414Z,49.10
2019-05-26T09:23:59.818Z,49.10
2019-05-26T09:29:03.264Z,46.00
2019-05-26T09:34:06.823Z,46.30
2019-05-26T09:39:10.259Z,47.50
2019-05-26T09:44:13.705Z,46.70
2019-05-26T09:49:17.160Z,46.80
2019-05-26T09:54:20.679Z,47.00
2019-05-26T09:59:24.117Z,47.40
2019-05-26T10:04:27.728Z,46.40
2019-05-26T10:09:31.248Z,42.60
2019-05-26T10:14:34.693Z,44.70
2019-05-26T10:19:38.134Z,44.60
2019-05-26T10:24:41.717Z,44.70
2019-05-26T10:29:45.129Z,45.70
2019-05-26T10:34:48.641Z,45.60
2019-05-26T10:39:52.237Z,45.80
2019-05-26T10:44:55.660Z,46.10
2019-05-26T10:49:59.160Z,46.20
2019-05-26T10:55:02.661Z,45.10
2019-05-26T11:00:07.203Z,42.60
2019-05-26T11:05:10.684Z,42.40
2019-05-26T11:10:14.228Z,43.80
2019-05-26T11:15:17.886Z,43.40
2019-05-26T11:20:21.351Z,43.00
2019-05-26T11:25:24.797Z,40.90
2019-05-26T11:30:28.626Z,41.40
2019-05-26T11:35:32.079Z,41.30
2019-05-26T11:40:35.534Z,41.80
2019-05-26T11:45:39.167Z,42.10
2019-05-26T11:50:42.763Z,41.30
2019-05-26T11:55:46.296Z,41.20
2019-05-26T12:00:49.893Z,42.30
2019-05-26T12:05:53.635Z,41.80
2019-05-26T12:10:58.481Z,42.20
2019-05-26T12:16:02.165Z,39.80
2019-05-26T12:21:05.638Z,40.00
2019-05-26T12:26:09.201Z,40.70
2019-05-26T12:31:12.712Z,41.80
2019-05-26T12:36:16.254Z,42.70
2019-05-26T12:41:21.125Z,43.30
2019-05-26T12:46:24.597Z,44.00
2019-05-26T12:51:28.451Z,44.20
2019-05-26T12:56:32.476Z,44.10
2019-05-26T13:01:35.999Z,44.20
2019-05-26T13:06:39.566Z,44.60
2019-05-26T13:11:43.103Z,44.50
2019-05-26T13:16:46.802Z,44.80
2019-05-26T13:21:50.500Z,44.80
2019-05-26T13:26:55.696Z,44.90
2019-05-26T13:31:59.315Z,44.90
2019-05-26T13:37:05.452Z,45.20
2019-05-26T13:42:09.071Z,45.30
2019-05-26T13:47:25.431Z,45.20
2019-05-26T13:52:18.859Z,45.40
2019-05-26T13:57:22.490Z,44.60
2019-05-26T14:02:27.926Z,43.90
2019-05-26T14:07:31.669Z,43.00
2019-05-26T14:12:37.013Z,43.50
2019-05-26T14:17:40.531Z,43.90
2019-05-26T14:22:44.362Z,44.00
2019-05-26T14:27:49.480Z,44.20
2019-05-26T14:32:53.330Z,44.30
2019-05-26T14:37:56.873Z,43.60
2019-05-26T14:43:00.385Z,43.80
2019-05-26T14:48:04.296Z,43.90
2019-05-26T14:53:07.798Z,44.20
2019-05-26T14:58:16.331Z,44.30
2019-05-26T15:03:16.295Z,43.00
2019-05-26T15:08:19.776Z,43.20
2019-05-26T15:13:23.201Z,43.30
2019-05-26T15:18:26.699Z,44.00
2019-05-26T15:23:32.120Z,43.90
2019-05-26T15:28:35.315Z,44.40
2019-05-26T15:33:38.782Z,44.70
2019-05-26T15:38:43.464Z,44.40
2019-05-26T15:43:47.011Z,44.00
2019-05-26T15:48:51.551Z,44.80
2019-05-26T15:53:54.974Z,45.00
2019-05-26T15:58:58.527Z,45.40
2019-05-26T16:04:01.969Z,45.40
2019-05-26T16:09:07.396Z,43.60
2019-05-26T16:14:10.939Z,43.60
2019-05-26T16:19:14.383Z,44.90
2019-05-26T16:24:17.925Z,43.80
2019-05-26T16:29:21.482Z,43.80
2019-05-26T16:34:25.010Z,43.90
2019-05-26T16:39:37.136Z,44.30
2019-05-26T16:44:33.737Z,45.60
2019-05-26T16:49:37.167Z,46.70
2019-05-26T16:54:40.673Z,46.20
2019-05-26T16:59:44.166Z,48.30
2019-05-26T17:04:47.686Z,47.90
2019-05-26T17:09:51.307Z,48.10
2019-05-26T17:14:54.725Z,47.50
2019-05-26T17:19:58.233Z,47.60
2019-05-26T17:25:01.800Z,47.30
2019-05-26T17:30:06.593Z,47.30
2019-05-26T17:35:10.235Z,47.60
2019-05-26T17:40:13.671Z,46.20
2019-05-26T17:45:17.191Z,47.00
2019-05-26T17:50:20.762Z,47.20
2019-05-26T17:55:24.210Z,47.20
2019-05-26T18:00:27.778Z,47.50
2019-05-26T18:05:31.324Z,47.40
2019-05-26T18:10:34.810Z,46.10
2019-05-26T18:15:38.348Z,45.60
2019-05-26T18:20:41.859Z,45.50
2019-05-26T18:25:45.286Z,45.10
2019-05-26T18:30:48.753Z,45.10
2019-05-26T18:35:52.198Z,45.70
2019-05-26T18:40:55.816Z,46.20
2019-05-26T18:45:59.358Z,45.20
2019-05-26T18:51:02.910Z,45.70
2019-05-26T18:56:06.462Z,45.70
2019-05-26T19:01:09.890Z,46.60
2019-05-26T19:06:13.493Z,45.40
2019-05-26T19:11:16.974Z,45.20
2019-05-26T19:16:20.438Z,45.60
2019-05-26T19:21:23.917Z,45.50
2019-05-26T19:26:27.442Z,45.80
2019-05-26T19:31:30.828Z,45.90
2019-05-26T19:36:34.367Z,45.90
2019-05-26T19:41:39.333Z,46.00
2019-05-26T19:46:42.999Z,46.30
2019-05-26T19:51:46.569Z,46.40
2019-05-26T19:56:50.063Z,46.40
2019-05-26T20:01:53.484Z,46.30
2019-05-26T20:06:56.952Z,46.50
2019-05-26T20:12:00.475Z,46.20
2019-05-26T20:17:04.183Z,45.90
2019-05-26T20:22:07.705Z,46.40
2019-05-26T20:27:11.222Z,46.50
2019-05-26T20:32:14.733Z,46.60
2019-05-26T20:37:19.237Z,46.50
2019-05-26T20:42:22.790Z,46.60
2019-05-26T20:47:26.306Z,46.80
2019-05-26T20:52:29.848Z,46.80
2019-05-26T20:57:33.246Z,46.80
2019-05-26T21:02:37.754Z,47.00
2019-05-26T21:07:41.281Z,47.20
2019-05-26T21:12:44.784Z,47.00
2019-05-26T21:17:48.306Z,47.30
2019-05-26T21:22:51.811Z,47.90
2019-05-26T21:27:55.260Z,47.40
2019-05-26T21:32:58.745Z,47.70
2019-05-26T21:38:02.251Z,47.40
2019-05-26T21:43:05.697Z,47.50
2019-05-26T21:48:09.186Z,47.80
2019-05-26T21:53:12.616Z,47.70
2019-05-26T21:58:16.110Z,47.90
2019-05-26T22:03:19.536Z,48.40
2019-05-26T22:08:23.035Z,48.00
2019-05-26T22:13:26.551Z,47.90
2019-05-26T22:18:30.060Z,48.00
2019-05-26T22:23:33.607Z,48.10
2019-05-26T22:28:38.877Z,48.20
2019-05-26T22:33:42.443Z,48.20
2019-05-26T22:38:45.968Z,48.10
2019-05-26T22:43:49.383Z,48.30
2019-05-26T22:48:52.811Z,48.40
2019-05-26T22:53:56.303Z,48.40
2019-05-26T22:58:59.755Z,48.30
2019-05-26T23:04:03.638Z,48.40
2019-05-26T23:09:07.264Z,48.40
2019-05-26T23:14:10.764Z,48.50
2019-05-26T23:19:19.218Z,48.50
2019-05-26T23:24:19.462Z,48.60
2019-05-26T23:29:22.849Z,48.70
2019-05-26T23:34:26.388Z,49.30
2019-05-26T23:39:29.782Z,48.80
2019-05-26T23:44:33.286Z,48.80
2019-05-26T23:49:36.826Z,48.80
2019-05-26T23:54:40.228Z,48.90
2019-05-26T23:59:43.672Z,48.90
